createdAt,value
2022-08-19T00:02:20.870Z,0.88
2022-08-19T00:05:23.826Z,1.30
2022-08-19T00:08:26.761Z,1.13
2022-08-19T00:11:29.602Z,1.52
2022-08-19T00:14:32.682Z,1.35
2022-08-19T00:17:35.696Z,1.30
2022-08-19T00:20:45.182Z,1.42
2022-08-19T00:23:48.356Z,1.30
2022-08-19T00:26:51.409Z,1.92
2022-08-19T00:29:54.360Z,1.70
2022-08-19T00:32:57.484Z,1.52
2022-08-19T00:36:01.512Z,1.37
2022-08-19T00:39:04.680Z,1.47
2022-08-19T00:42:07.554Z,1.02
2022-08-19T00:45:13.735Z,1.40
2022-08-19T00:48:17.898Z,1.00
2022-08-19T00:51:20.478Z,1.65
2022-08-19T00:54:28.223Z,1.70
2022-08-19T00:57:36.746Z,1.62
2022-08-19T01:00:39.695Z,1.90
2022-08-19T01:03:55.188Z,1.40
2022-08-19T01:07:02.515Z,1.67
2022-08-19T01:10:07.150Z,1.67
2022-08-19T01:13:10.522Z,1.40
2022-08-19T01:16:13.410Z,1.75
2022-08-19T01:19:29.178Z,1.52
2022-08-19T01:22:33.997Z,1.80
2022-08-19T01:25:43.459Z,2.17
2022-08-19T01:28:51.897Z,1.67
2022-08-19T01:31:55.203Z,1.75
2022-08-19T01:34:57.690Z,1.80
2022-08-19T01:38:09.327Z,1.52
2022-08-19T01:41:13.434Z,1.57
2022-08-19T01:44:18.829Z,1.40
2022-08-19T01:47:21.785Z,2.40
2022-08-19T01:50:24.961Z,1.70
2022-08-19T01:53:33.610Z,1.80
2022-08-19T01:56:36.690Z,1.70
2022-08-19T01:59:40.763Z,1.92
2022-08-19T02:02:44.204Z,2.03
2022-08-19T02:05:47.201Z,1.75
2022-08-19T02:08:50.219Z,2.05
2022-08-19T02:11:54.618Z,2.00
2022-08-19T02:14:57.202Z,2.08
2022-08-19T02:18:00.313Z,1.73
2022-08-19T02:21:02.843Z,1.65
2022-08-19T02:24:05.872Z,1.83
2022-08-19T02:27:08.391Z,1.50
2022-08-19T02:30:17.104Z,1.83
2022-08-19T02:33:19.705Z,1.70
2022-08-19T02:36:23.119Z,1.70
2022-08-19T02:39:25.639Z,1.87
2022-08-19T02:42:28.674Z,1.70
2022-08-19T02:45:35.604Z,1.73
2022-08-19T02:48:43.348Z,1.83
2022-08-19T02:51:47.217Z,1.75
2022-08-19T02:54:50.695Z,1.85
2022-08-19T02:57:53.214Z,1.60
2022-08-19T03:00:57.062Z,1.65
2022-08-19T03:04:01.793Z,1.95
2022-08-19T03:07:10.738Z,2.10
2022-08-19T03:10:14.376Z,2.10
2022-08-19T03:13:18.890Z,1.90
2022-08-19T03:16:24.432Z,2.15
2022-08-19T03:19:28.563Z,2.58
2022-08-19T03:22:31.116Z,2.42
2022-08-19T03:25:39.171Z,2.15
2022-08-19T03:28:42.971Z,2.17
2022-08-19T03:31:53.720Z,2.03
2022-08-19T03:34:56.355Z,1.98
2022-08-19T03:38:01.938Z,2.20
2022-08-19T03:41:07.416Z,2.12
2022-08-19T03:44:16.611Z,1.83
2022-08-19T03:47:21.246Z,2.60
2022-08-19T03:50:25.407Z,2.62
2022-08-19T03:53:29.213Z,2.45
2022-08-19T03:56:32.500Z,2.08
2022-08-19T03:59:36.762Z,2.40
2022-08-19T04:02:39.602Z,2.53
2022-08-19T04:05:42.540Z,2.62
2022-08-19T04:08:46.881Z,2.70
2022-08-19T04:11:54.727Z,2.95
2022-08-19T04:14:57.298Z,2.63
2022-08-19T04:18:00.065Z,2.75
2022-08-19T04:21:02.560Z,3.42
2022-08-19T04:24:05.608Z,3.22
2022-08-19T04:27:08.184Z,3.35
2022-08-19T04:30:11.528Z,3.50
2022-08-19T04:33:16.595Z,3.72
2022-08-19T04:36:30.225Z,3.80
2022-08-19T04:40:11.482Z,3.70
2022-08-19T04:43:15.734Z,4.30
2022-08-19T04:46:39.283Z,4.27
2022-08-19T04:49:41.197Z,3.60
2022-08-19T04:52:43.745Z,4.40
2022-08-19T04:55:46.613Z,4.45
2022-08-19T04:58:51.635Z,4.78
2022-08-19T05:01:54.462Z,4.67
2022-08-19T05:05:01.494Z,5.00
2022-08-19T05:08:04.868Z,4.93
2022-08-19T05:11:29.336Z,5.60
2022-08-19T05:14:32.274Z,5.20
2022-08-19T05:17:38.757Z,5.10
2022-08-19T05:21:00.984Z,5.05
2022-08-19T05:24:08.783Z,5.53
2022-08-19T05:27:11.648Z,5.07
2022-08-19T05:30:14.499Z,5.45
2022-08-19T05:33:18.194Z,5.37
2022-08-19T05:36:21.074Z,5.80
2022-08-19T05:39:26.511Z,5.53
2022-08-19T05:42:29.124Z,6.20
2022-08-19T05:45:32.099Z,6.15
2022-08-19T05:48:36.073Z,6.27
2022-08-19T05:51:39.044Z,6.55
2022-08-19T05:54:43.613Z,6.90
2022-08-19T05:57:46.527Z,6.68
2022-08-19T06:00:49.084Z,6.80
2022-08-19T06:03:52.145Z,6.30
2022-08-19T06:06:55.126Z,6.22
2022-08-19T06:10:00.134Z,6.87
2022-08-19T06:13:03.976Z,6.68
2022-08-19T06:16:06.944Z,6.93
2022-08-19T06:19:12.921Z,6.67
2022-08-19T06:22:15.748Z,6.75
2022-08-19T06:25:18.660Z,7.30
2022-08-19T06:28:22.381Z,7.03
2022-08-19T06:31:28.372Z,7.03
2022-08-19T06:34:33.979Z,7.57
2022-08-19T06:37:39.773Z,6.87
2022-08-19T06:43:54.141Z,7.15
2022-08-19T06:46:59.259Z,7.35
2022-08-19T06:50:05.429Z,7.13
2022-08-19T06:53:08.550Z,7.25
2022-08-19T06:56:11.085Z,7.45
2022-08-19T06:59:18.809Z,7.75
2022-08-19T07:02:21.935Z,6.85
2022-08-19T07:05:25.073Z,6.80
2022-08-19T07:08:29.311Z,6.25
2022-08-19T07:11:34.161Z,6.30
2022-08-19T07:14:38.592Z,5.40
2022-08-19T07:17:42.238Z,5.15
2022-08-19T07:20:44.909Z,8.03
2022-08-19T07:23:48.979Z,7.60
2022-08-19T07:26:53.194Z,7.95
2022-08-19T07:29:57.609Z,7.93
2022-08-19T07:33:03.640Z,7.55
2022-08-19T07:36:08.932Z,7.70
2022-08-19T07:39:15.294Z,8.25
2022-08-19T07:42:19.098Z,7.07
2022-08-19T07:45:21.646Z,5.45
2022-08-19T07:48:26.396Z,5.35
2022-08-19T07:51:36.349Z,5.90
2022-08-19T07:54:40.255Z,5.80
2022-08-19T08:00:51.876Z,5.65
2022-08-19T08:04:16.799Z,6.18
2022-08-19T08:07:38.658Z,5.53
2022-08-19T08:10:42.082Z,6.00
2022-08-19T08:13:44.950Z,7.22
2022-08-19T08:16:47.835Z,6.32
2022-08-19T08:19:51.910Z,6.15
2022-08-19T08:23:13.208Z,6.93
2022-08-19T08:26:17.029Z,7.68
2022-08-19T08:29:22.203Z,7.07
2022-08-19T08:32:28.602Z,6.70
2022-08-19T08:35:31.431Z,7.62
2022-08-19T08:38:39.674Z,6.60
2022-08-19T08:41:58.699Z,6.87
2022-08-19T08:45:06.028Z,7.22
2022-08-19T08:48:24.245Z,7.47
2022-08-19T08:51:34.848Z,7.05
2022-08-19T08:54:48.912Z,7.43
2022-08-19T08:58:07.144Z,7.40
2022-08-19T09:01:13.583Z,6.95
2022-08-19T09:04:16.610Z,7.43
2022-08-19T09:08:19.834Z,7.47
2022-08-19T09:11:49.724Z,6.60
2022-08-19T09:15:14.797Z,7.00
2022-08-19T09:18:19.293Z,7.30
2022-08-19T09:21:30.237Z,7.15
2022-08-19T09:24:33.159Z,7.15
2022-08-19T09:27:43.132Z,6.97
2022-08-19T09:30:56.589Z,6.72
2022-08-19T09:34:00.394Z,6.70
2022-08-19T09:37:04.138Z,6.87
2022-08-19T09:40:08.096Z,6.95
2022-08-19T09:43:13.331Z,6.33
2022-08-19T09:46:19.070Z,6.05
2022-08-19T09:49:24.997Z,6.55
2022-08-19T09:52:32.843Z,5.93
2022-08-19T09:55:35.500Z,6.90
2022-08-19T09:58:39.171Z,5.53
2022-08-19T10:01:41.762Z,5.72
2022-08-19T10:05:07.051Z,5.32
2022-08-19T10:08:13.324Z,6.03
2022-08-19T10:11:28.710Z,5.78
2022-08-19T10:14:40.563Z,4.73
2022-08-19T10:17:48.209Z,4.35
2022-08-19T10:21:19.281Z,4.43
2022-08-19T10:24:25.261Z,4.53
2022-08-19T10:27:28.063Z,4.75
2022-08-19T10:30:36.997Z,4.63
2022-08-19T10:33:53.475Z,4.28
2022-08-19T10:37:00.595Z,4.55
2022-08-19T10:40:07.004Z,4.87
2022-08-19T10:43:09.894Z,4.93
2022-08-19T10:46:16.553Z,4.33
2022-08-19T10:49:25.159Z,4.72
2022-08-19T10:52:38.824Z,5.20
2022-08-19T10:56:00.847Z,4.18
2022-08-19T10:59:04.364Z,4.57
2022-08-19T11:02:13.977Z,4.33
2022-08-19T11:05:16.766Z,5.53
2022-08-19T11:08:23.447Z,5.50
2022-08-19T11:11:27.389Z,5.75
2022-08-19T11:14:32.189Z,6.20
2022-08-19T11:17:37.045Z,5.50
2022-08-19T11:20:40.446Z,5.12
2022-08-19T11:23:43.035Z,5.72
2022-08-19T11:26:46.012Z,5.60
2022-08-19T11:29:48.583Z,5.18
2022-08-19T11:32:51.408Z,5.10
2022-08-19T11:35:55.204Z,4.87
2022-08-19T11:38:58.108Z,4.80
2022-08-19T11:42:02.308Z,4.60
2022-08-19T11:45:05.274Z,5.12
2022-08-19T11:48:07.859Z,4.77
2022-08-19T11:51:13.258Z,4.78
2022-08-19T11:54:17.398Z,5.30
2022-08-19T11:57:20.795Z,4.97
2022-08-19T12:00:23.602Z,4.15
2022-08-19T12:03:26.871Z,4.00
2022-08-19T12:06:33.523Z,4.47
2022-08-19T12:09:36.378Z,5.62
2022-08-19T12:12:45.898Z,4.43
2022-08-19T12:15:57.234Z,4.75
2022-08-19T12:19:04.607Z,4.47
2022-08-19T12:22:08.656Z,4.22
2022-08-19T12:25:12.264Z,4.37
2022-08-19T12:28:15.078Z,3.90
2022-08-19T12:31:18.287Z,3.55
2022-08-19T12:34:21.537Z,4.07
2022-08-19T12:37:24.117Z,3.78
2022-08-19T12:40:27.554Z,3.87
2022-08-19T12:43:31.433Z,3.45
2022-08-19T12:46:34.329Z,3.67
2022-08-19T12:49:52.544Z,4.43
2022-08-19T12:52:59.112Z,4.62
2022-08-19T12:56:01.694Z,4.45
2022-08-19T12:59:05.817Z,4.72
2022-08-19T13:02:08.811Z,4.20
2022-08-19T13:05:14.261Z,4.90
2022-08-19T13:08:18.056Z,4.57
2022-08-19T13:11:22.065Z,5.15
2022-08-19T13:14:24.677Z,5.10
2022-08-19T13:17:29.939Z,5.25
2022-08-19T13:20:32.444Z,4.10
2022-08-19T13:23:36.829Z,4.62
2022-08-19T13:26:39.414Z,5.10
2022-08-19T13:30:01.596Z,5.15
2022-08-19T13:33:16.050Z,4.87
2022-08-19T13:36:19.271Z,5.37
2022-08-19T13:39:24.015Z,4.82
2022-08-19T13:42:26.905Z,5.35
2022-08-19T13:45:31.002Z,5.07
2022-08-19T13:48:33.920Z,5.15
2022-08-19T13:51:38.373Z,4.03
2022-08-19T13:54:43.387Z,3.85
2022-08-19T13:57:46.635Z,4.28
2022-08-19T14:12:56.865Z,4.28
2022-08-19T14:15:59.963Z,4.70
2022-08-19T14:19:03.008Z,4.70
2022-08-19T14:22:06.561Z,4.65
2022-08-19T14:25:11.909Z,4.30
2022-08-19T14:28:14.892Z,4.80
2022-08-19T14:31:20.145Z,4.60
2022-08-19T14:34:23.239Z,4.90
2022-08-19T14:53:11.911Z,3.10
2022-08-19T14:56:21.434Z,3.60
2022-08-19T14:59:24.565Z,3.00
2022-08-19T15:02:34.773Z,3.85
2022-08-19T15:05:37.838Z,3.58
2022-08-19T15:08:44.122Z,3.85
2022-08-19T15:11:46.694Z,3.60
2022-08-19T15:14:55.811Z,3.60
2022-08-19T15:18:03.450Z,3.58
2022-08-19T15:21:06.388Z,3.87
2022-08-19T15:24:10.328Z,3.55
2022-08-19T15:27:13.891Z,4.65
2022-08-19T15:30:22.403Z,3.17
2022-08-19T15:33:26.040Z,2.83
2022-08-19T15:36:28.597Z,3.17
2022-08-19T15:39:32.250Z,3.17
2022-08-19T15:42:37.422Z,3.45
2022-08-19T15:45:45.222Z,3.33
2022-08-19T16:16:47.342Z,3.50
2022-08-19T16:19:52.666Z,3.20
2022-08-19T16:22:58.514Z,2.40
2022-08-19T16:26:02.011Z,2.58
2022-08-19T16:29:09.047Z,2.83
2022-08-19T16:32:16.117Z,2.95
2022-08-19T16:35:18.689Z,2.78
2022-08-19T16:38:22.808Z,2.17
2022-08-19T16:41:25.439Z,2.15
2022-08-19T16:44:29.758Z,2.00
2022-08-19T16:47:32.467Z,2.12
2022-08-19T16:50:48.838Z,2.60
2022-08-19T16:53:53.280Z,2.00
2022-08-19T16:56:56.186Z,2.60
2022-08-19T16:59:58.865Z,1.90
2022-08-19T17:03:14.612Z,2.42
2022-08-19T17:06:22.221Z,2.12
2022-08-19T17:09:26.030Z,2.30
2022-08-19T17:12:31.595Z,2.45
2022-08-19T17:15:35.177Z,2.20
2022-08-19T17:18:37.703Z,3.30
2022-08-19T17:21:40.895Z,2.92
2022-08-19T17:24:43.392Z,2.60
2022-08-19T17:27:46.192Z,2.87
2022-08-19T17:30:48.926Z,3.17
2022-08-19T17:33:52.657Z,2.53
2022-08-19T17:36:57.701Z,2.30
2022-08-19T17:40:02.777Z,2.70
2022-08-19T17:43:07.453Z,2.50
2022-08-19T17:46:12.946Z,2.70
2022-08-19T17:49:20.755Z,3.05
2022-08-19T17:52:23.962Z,2.67
2022-08-19T17:55:26.990Z,2.65
2022-08-19T17:58:29.812Z,2.58
2022-08-19T18:01:52.760Z,3.20
2022-08-19T18:04:55.955Z,3.30
2022-08-19T18:08:00.026Z,3.33
2022-08-19T18:11:03.803Z,3.50
2022-08-19T18:14:06.386Z,3.58
2022-08-19T18:17:14.290Z,3.47
2022-08-19T18:20:17.888Z,3.97
2022-08-19T18:23:43.827Z,4.00
2022-08-19T18:26:45.400Z,4.07
2022-08-19T18:29:48.218Z,3.85
2022-08-19T18:32:53.005Z,3.67
2022-08-19T18:35:55.784Z,3.83
2022-08-19T18:39:17.279Z,4.20
2022-08-19T18:42:39.999Z,4.37
2022-08-19T18:46:02.154Z,3.70
2022-08-19T18:49:05.553Z,3.70
2022-08-19T18:52:08.119Z,4.22
2022-08-19T18:55:11.730Z,3.95
2022-08-19T18:58:15.104Z,3.80
2022-08-19T19:01:22.208Z,3.95
2022-08-19T19:04:34.203Z,3.97
2022-08-19T19:07:36.963Z,4.37
2022-08-19T19:10:41.176Z,4.60
2022-08-19T19:13:47.053Z,4.00
2022-08-19T19:16:49.608Z,4.68
2022-08-19T19:19:52.979Z,5.00
2022-08-19T19:22:56.049Z,4.10
2022-08-19T19:26:01.719Z,4.30
2022-08-19T19:29:04.926Z,3.80
2022-08-19T19:32:10.825Z,4.03
2022-08-19T19:35:13.513Z,4.50
2022-08-19T19:38:16.345Z,4.43
2022-08-19T19:41:24.229Z,4.55
2022-08-19T19:44:30.742Z,5.07
2022-08-19T19:47:35.107Z,5.72
2022-08-19T19:50:37.914Z,5.43
2022-08-19T19:53:41.227Z,4.72
2022-08-19T19:56:45.047Z,4.87
2022-08-19T19:59:51.732Z,5.20
2022-08-19T20:02:56.010Z,4.90
2022-08-19T20:05:59.458Z,4.73
2022-08-19T20:09:08.228Z,5.20
2022-08-19T20:12:11.039Z,5.28
2022-08-19T20:15:14.903Z,5.25
2022-08-19T20:18:17.739Z,5.20
2022-08-19T20:21:20.454Z,5.10
2022-08-19T20:24:32.621Z,5.15
2022-08-19T20:27:40.131Z,5.05
2022-08-19T20:30:46.342Z,4.70
2022-08-19T20:33:49.903Z,5.72
2022-08-19T20:36:52.863Z,5.23
2022-08-19T20:39:55.401Z,4.40
2022-08-19T20:42:58.266Z,5.37
2022-08-19T20:46:03.427Z,4.53
2022-08-19T20:49:06.291Z,4.62
2022-08-19T20:52:08.800Z,5.30
2022-08-19T20:55:12.748Z,5.45
2022-08-19T20:58:16.908Z,5.15
2022-08-19T21:01:19.822Z,5.12
2022-08-19T21:04:22.634Z,4.93
2022-08-19T21:07:25.501Z,5.77
2022-08-19T21:10:42.506Z,5.12
2022-08-19T21:13:45.366Z,5.22
2022-08-19T21:16:47.934Z,5.30
2022-08-19T21:19:50.755Z,5.22
2022-08-19T21:22:53.293Z,5.00
2022-08-19T21:25:58.288Z,5.62
2022-08-19T21:29:00.951Z,5.18
2022-08-19T21:32:04.447Z,5.47
2022-08-19T21:35:07.126Z,5.15
2022-08-19T21:38:10.133Z,5.37
2022-08-19T21:41:12.786Z,5.55
2022-08-19T21:44:15.610Z,5.45
2022-08-19T21:47:18.169Z,5.60
2022-08-19T21:50:22.451Z,6.30
2022-08-19T21:53:31.538Z,5.80
2022-08-19T21:56:40.107Z,6.12
2022-08-19T21:59:43.724Z,6.12
2022-08-19T22:02:46.828Z,6.43
2022-08-19T22:05:50.879Z,5.93
2022-08-19T22:08:56.211Z,5.43
2022-08-19T22:11:59.143Z,6.10
2022-08-19T22:15:02.122Z,5.82
2022-08-19T22:18:06.103Z,5.80
2022-08-19T22:21:11.948Z,7.28
2022-08-19T22:24:15.143Z,5.70
2022-08-19T22:27:17.903Z,6.30
2022-08-19T22:30:23.348Z,6.97
2022-08-19T22:33:27.781Z,6.72
2022-08-19T22:36:31.769Z,6.37
2022-08-19T22:39:35.826Z,6.83
2022-08-19T22:42:39.224Z,7.10
2022-08-19T22:45:42.598Z,6.75
2022-08-19T22:48:46.679Z,5.28
2022-08-19T22:52:07.865Z,6.32
2022-08-19T22:55:10.682Z,5.60
2022-08-19T22:58:13.196Z,5.35
2022-08-19T23:01:27.589Z,6.05
2022-08-19T23:04:32.964Z,6.90
2022-08-19T23:07:36.912Z,7.22
2022-08-19T23:10:39.741Z,7.03
2022-08-19T23:13:42.646Z,6.68
2022-08-19T23:16:50.818Z,7.20
2022-08-19T23:19:54.613Z,7.10
2022-08-19T23:22:57.945Z,6.37
2022-08-19T23:26:00.692Z,6.87
2022-08-19T23:29:23.235Z,6.60
2022-08-19T23:32:26.123Z,6.57
2022-08-19T23:35:33.586Z,7.18
2022-08-19T23:38:36.464Z,6.82
2022-08-19T23:41:39.126Z,6.90
2022-08-19T23:44:51.876Z,6.90
2022-08-19T23:47:55.918Z,7.18
2022-08-19T23:51:10.269Z,6.97
2022-08-19T23:54:12.930Z,7.18
2022-08-19T23:57:15.861Z,7.20
